Terminal Aerodrome Forecast
Issued by NWS

Home | Current Version | Previous Version | Text Only | Print | Product List | Glossary On
Versions: 1 2 3 4 5 6 7 8 9 10 11 12 13 14 15 16
000
FTUS43 KGRB 230500
TAFATW
TAF
KATW 230525Z 2306/2406 34011KT P6SM SCT090
     FM231500 01010G17KT P6SM SCT040
      TEMPO 2317/2321 BKN040
     FM232300 03008KT P6SM SKC=

USA.gov is the U.S. government's official web portal to all federal, state and local government web resources and services.